Meteorología y climatología de Navarra
Datos de la estación - Meteo Navarra

Estación de Carcastillo (La Oliva) GN

Altitud 343 m.


Datos desde el 30/06/2020 hasta el 01/07/2020 en horario solar
Los datos son PROVISIONALES

Anterior Página 1 de 1 Siguiente Descargar: Formato para Excel 2000 o superior   Formato csv   Formato para OpenOffice Calc
Fecha Temperatura Humedad relativa Radiación global Insolación Precipitación Vel. viento 10 m Vel. viento 10 m Dir. viento 10 m
ºC % W/m² s l/m² m/s km/h º
30/06/2020 0:00 16.5 81 0.0 0 0.0 1.3 4.7 310
30/06/2020 0:10 16.4 81 0.0 0 0.0 0.9 3.2 273
30/06/2020 0:20 16.3 82 0.0 0 0.0 1.2 4.4 252
30/06/2020 0:30 16.1 82 0.0 0 0.0 1.0 3.4 218
30/06/2020 0:40 15.9 83 0.0 0 0.0 1.7 6.1 227
30/06/2020 0:50 15.8 84 0.0 0 0.0 1.3 4.6 232
30/06/2020 1:00 15.6 85 0.0 0 0.0 1.6 5.7 241
30/06/2020 1:10 15.5 85 0.0 0 0.0 1.3 4.7 241
30/06/2020 1:20 15.4 86 0.0 0 0.0 1.1 4.0 251
30/06/2020 1:30 15.2 87 0.0 0 0.0 1.8 6.3 270
30/06/2020 1:40 15.3 87 0.0 0 0.0 1.6 5.7 273
30/06/2020 1:50 15.2 87 0.0 0 0.0 1.6 5.7 264
30/06/2020 2:00 15.1 87 0.0 0 0.0 1.1 3.9 249
30/06/2020 2:10 15.1 88 0.0 0 0.0 0.9 3.1 241
30/06/2020 2:20 15.0 88 0.0 0 0.0 0.8 3.0 246
30/06/2020 2:30 14.8 88 0.0 0 0.0 1.4 4.9 255
30/06/2020 2:40 14.8 89 0.0 0 0.0 1.7 6.1 267
30/06/2020 2:50 14.7 89 0.0 0 0.0 1.6 5.8 264
30/06/2020 3:00 14.6 89 0.0 0 0.0 1.2 4.3 270
30/06/2020 3:10 14.5 89 0.0 0 0.0 0.4 1.5 266
30/06/2020 3:20 14.4 90 0.0 0 0.0 0.6 2.1 259
30/06/2020 3:30 14.5 91 0.0 0 0.0 1.4 5.0 252
30/06/2020 3:40 14.6 91 0.0 0 0.0 1.2 4.4 269
30/06/2020 3:50 14.8 91 0.0 0 0.0 1.7 6.1 268
30/06/2020 4:00 14.9 91 0.0 0 0.0 1.8 6.6 269
30/06/2020 4:10 15.0 89 0.0 0 0.0 1.8 6.6 265
30/06/2020 4:20 15.0 88 0.0 0 0.0 1.8 6.6 254
30/06/2020 4:30 14.9 89 0.0 0 0.0 1.5 5.4 251
30/06/2020 4:40 14.8 88 0.0 0 0.0 1.0 3.7 241
30/06/2020 4:50 14.7 88 0.0 0 0.0 1.1 3.9 251
30/06/2020 5:00 14.7 89 2.5 0 0.0 0.7 2.6 244
30/06/2020 5:10 14.6 88 19.5 0 0.0 0.8 3.0 241
30/06/2020 5:20 14.6 88 26.0 0 0.0 0.7 2.5 240
30/06/2020 5:30 14.7 88 53.4 96 0.0 1.2 4.1 242
30/06/2020 5:40 14.9 88 93.6 566 0.0 1.3 4.5 258
30/06/2020 5:50 15.1 88 121.7 600 0.0 1.0 3.7 271
30/06/2020 6:00 15.3 85 124.2 456 0.0 1.1 4.0 257
30/06/2020 6:10 15.5 84 85.0 88 0.0 0.9 3.2 262
30/06/2020 6:20 15.6 84 90.0 0 0.0 1.1 4.0 277
30/06/2020 6:30 15.8 84 107.9 0 0.0 1.3 4.6 278
30/06/2020 6:40 16.0 83 112.8 0 0.0 1.1 3.9 270
30/06/2020 6:50 16.4 81 141.8 0 0.0 0.9 3.2 282
30/06/2020 7:00 16.6 81 156.9 0 0.0 0.6 2.0 272
30/06/2020 7:10 16.9 80 154.4 0 0.0 0.6 2.1 292
30/06/2020 7:20 17.1 79 188.0 0 0.0 0.5 1.9 290
30/06/2020 7:30 17.5 78 213.9 8 0.0 0.8 2.9 278
30/06/2020 7:40 17.8 76 240.2 8 0.0 0.9 3.1 285
30/06/2020 7:50 18.3 75 271.3 54 0.0 0.5 1.9 282
30/06/2020 8:00 18.6 74 321.0 292 0.0 0.6 2.0 278
30/06/2020 8:10 19.0 72 299.8 30 0.0 0.6 2.2 264
30/06/2020 8:20 19.3 72 361.2 516 0.0 0.4 1.4 325
30/06/2020 8:30 19.7 71 376.3 490 0.0 0.2 0.6 286
30/06/2020 8:40 20.2 70 431.7 600 0.0 0.4 1.4 326
30/06/2020 8:50 20.6 69 391.7 324 0.0 0.5 1.9 3
30/06/2020 9:00 21.0 68 412.4 312 0.0 0.0 0.1 27
30/06/2020 9:10 21.6 67 660.3 548 0.0 0.4 1.3 32
30/06/2020 9:20 22.5 65 728.7 600 0.0 0.5 1.9 51
30/06/2020 9:30 23.6 65 753.8 600 0.0 2.4 8.6 115
30/06/2020 9:40 24.2 64 776.1 600 0.0 2.9 10.4 109
30/06/2020 9:50 24.8 63 799.8 600 0.0 2.9 10.5 108
30/06/2020 10:00 25.3 60 820.0 600 0.0 2.0 7.1 117
30/06/2020 10:10 25.6 58 838.0 600 0.0 1.3 4.8 134
30/06/2020 10:20 26.2 58 855.0 600 0.0 2.2 8.1 99
30/06/2020 10:30 26.5 56 872.0 600 0.0 1.8 6.3 129
30/06/2020 10:40 27.0 53 887.0 600 0.0 1.8 6.5 144
30/06/2020 10:50 27.3 51 902.0 600 0.0 2.4 8.7 154
30/06/2020 11:00 27.7 49 911.0 600 0.0 1.9 6.8 134
30/06/2020 11:10 28.0 47 920.0 600 0.0 2.3 8.4 137
30/06/2020 11:20 28.2 45 930.0 600 0.0 2.8 10.1 142
30/06/2020 11:30 28.4 41 941.0 600 0.0 1.8 6.4 139
30/06/2020 11:40 28.8 40 945.0 600 0.0 1.5 5.2 146
30/06/2020 11:50 29.1 38 954.0 600 0.0 1.9 6.7 133
30/06/2020 12:00 29.3 38 956.0 600 0.0 2.4 8.5 128
30/06/2020 12:10 29.4 37 959.0 600 0.0 2.1 7.5 139
30/06/2020 12:20 29.7 38 959.0 600 0.0 2.3 8.4 121
30/06/2020 12:30 30.0 37 958.0 600 0.0 2.0 7.2 129
30/06/2020 12:40 30.3 37 951.0 600 0.0 1.4 5.0 180
30/06/2020 12:50 30.9 36 942.0 600 0.0 0.5 1.8 185
30/06/2020 13:00 30.7 38 934.0 600 0.0 1.8 6.4 177
30/06/2020 13:10 31.0 39 926.0 600 0.0 2.5 9.1 194
30/06/2020 13:20 31.1 39 917.0 600 0.0 1.9 6.9 166
30/06/2020 13:30 31.2 38 906.0 600 0.0 1.4 5.0 201
30/06/2020 13:40 31.5 39 896.0 600 0.0 0.8 3.0 180
30/06/2020 13:50 31.7 38 888.0 600 0.0 0.6 2.1 161
30/06/2020 14:00 31.9 38 871.0 600 0.0 1.0 3.4 152
30/06/2020 14:10 32.2 37 858.0 600 0.0 0.9 3.2 181
30/06/2020 14:20 32.6 37 857.0 600 0.0 1.0 3.5 195
30/06/2020 14:30 32.8 36 874.0 600 0.0 0.3 1.2 170
30/06/2020 14:40 32.9 39 760.3 600 0.0 1.4 5.1 140
30/06/2020 14:50 32.7 40 768.5 600 0.0 1.8 6.4 135
30/06/2020 15:00 32.6 41 667.6 600 0.0 1.6 5.9 142
30/06/2020 15:10 32.2 42 387.2 50 0.0 1.5 5.4 106
30/06/2020 15:20 32.1 42 296.8 0 0.0 0.7 2.5 147
30/06/2020 15:30 31.7 43 237.2 0 0.0 1.1 3.8 170
30/06/2020 15:40 31.4 43 212.5 0 0.0 2.2 7.7 189
30/06/2020 15:50 31.1 44 177.7 0 0.0 0.9 3.4 184
30/06/2020 16:00 31.0 44 194.2 0 0.0 0.9 3.2 204
30/06/2020 16:10 31.2 42 228.3 0 0.0 1.6 5.7 245
30/06/2020 16:20 31.3 43 177.7 0 0.0 0.9 3.1 188
30/06/2020 16:30 31.0 45 146.3 0 0.0 0.7 2.5 194
30/06/2020 16:40 30.9 41 151.2 0 0.0 1.6 5.6 254
30/06/2020 16:50 30.4 42 147.2 0 0.0 1.4 5.0 288
30/06/2020 17:00 30.0 42 122.4 0 0.0 1.7 6.2 287
30/06/2020 17:10 29.6 43 97.2 0 0.0 2.7 9.5 282
30/06/2020 17:20 29.0 45 74.5 0 0.0 2.3 8.2 293
30/06/2020 17:30 28.5 44 54.0 0 0.0 1.6 5.8 299
30/06/2020 17:40 28.4 43 44.9 0 0.0 1.5 5.3 292
30/06/2020 17:50 28.1 45 50.0 0 0.0 2.6 9.4 281
30/06/2020 18:00 27.9 44 54.9 0 0.0 0.7 2.6 297
30/06/2020 18:10 27.9 45 50.5 0 0.0 2.2 7.8 256
30/06/2020 18:20 27.6 48 34.9 0 0.0 1.1 3.8 262
30/06/2020 18:30 27.4 49 21.9 0 0.0 1.1 3.9 215
30/06/2020 18:40 27.4 47 14.5 0 0.0 0.6 2.3 230
30/06/2020 18:50 27.2 52 0.0 0 0.0 0.5 1.8 32
30/06/2020 19:00 26.8 52 0.0 0 0.0 1.9 6.8 270
30/06/2020 19:10 26.4 53 0.0 0 0.0 2.1 7.6 286
30/06/2020 19:20 26.3 53 0.0 0 0.0 1.2 4.4 353
30/06/2020 19:30 26.2 53 0.0 0 0.0 1.5 5.3 83
30/06/2020 19:40 26.5 52 0.0 0 0.0 1.3 4.6 177
30/06/2020 19:50 26.4 52 0.0 0 0.0 1.2 4.3 171
30/06/2020 20:00 26.3 53 0.0 0 0.0 1.3 4.6 118
30/06/2020 20:10 26.2 53 0.0 0 0.0 0.6 2.1 152
30/06/2020 20:20 26.0 53 0.0 0 0.0 2.1 7.6 120
30/06/2020 20:30 25.9 54 0.0 0 0.0 3.2 11.4 112
30/06/2020 20:40 25.6 54 0.0 0 0.0 2.3 8.1 145
30/06/2020 20:50 25.7 52 0.0 0 0.0 2.4 8.7 109
30/06/2020 21:00 25.6 55 0.0 0 0.0 2.1 7.7 117
30/06/2020 21:10 25.5 54 0.0 0 0.0 1.5 5.5 159
30/06/2020 21:20 25.5 55 0.0 0 0.0 3.7 13.1 290
30/06/2020 21:30 25.4 59 0.0 0 0.0 3.6 13.0 283
30/06/2020 21:40 25.3 58 0.0 0 0.0 2.1 7.6 270
30/06/2020 21:50 25.3 59 0.0 0 0.0 2.2 8.0 58
30/06/2020 22:00 25.0 59 0.0 0 0.0 1.8 6.5 165
30/06/2020 22:10 24.8 60 0.0 0 0.0 0.7 2.7 170
30/06/2020 22:20 24.8 61 0.0 0 0.0 0.6 2.1 222
30/06/2020 22:30 24.5 62 0.0 0 0.0 2.8 10.1 130
30/06/2020 22:40 24.5 60 0.0 0 0.0 3.4 12.3 97
30/06/2020 22:50 24.7 58 0.0 0 0.0 2.2 7.8 72
30/06/2020 23:00 24.9 58 0.0 0 0.0 4.1 14.8 273
30/06/2020 23:10 25.0 57 0.0 0 0.0 2.8 10.0 247
30/06/2020 23:20 25.1 57 0.0 0 0.0 4.0 14.4 118
30/06/2020 23:30 24.6 62 0.0 0 0.0 2.1 7.4 107
30/06/2020 23:40 24.3 63 0.0 0 0.0 1.8 6.5 63
30/06/2020 23:50 24.1 64 0.0 0 0.0 2.1 7.5 81
Anterior Página 1 de 1 Siguiente

NOTA: Tipo de datos según el color:
   - Valores diarios o 10 minutos correctos
   - Valores diarios calculados a partir de un número de datos 10 minutos menor que 144 y mayor que 120, o de un número de datos semihorarios menor que 48 y mayor que 40 (caso de las estaciones de INTIA y del Ministerio)
   - Valores diez minutos estimados


Contacto        Enlaces        Aviso legal